Holden, UT (84636)

1:52 PM MDT on July 23, 2014 (GMT -0600)
Oak City (KUTOAKCI1) Elev 5135 ft | 39.37 °N, 112.33 °W | Change Station
Active Advisory: Fire Weather Warning

Current weather conditions updated 2 minutes ago

Clear
Clear
97.9 °F
Feels Like 93 °F
N
8.0
Wind Variable Wind from South
Gusts 8.0 mph

Today is forecast to be nearly the same temperature as yesterday.

Today
High -- | Low -- °F
--% Chance of Precip.
Yesterday
High -- | Low -- °F
Precip. -- in
6:21 AM 8:48 PM
Waning Crescent, 9% visible
Pressure 29.94 in
Visibility 10.0 miles
Clouds Clear
Heat Index 93 °F
Dew Point 34 °F
Humidity 11%
Rainfall 0.00 in
Snow Depth Not available.
UV 12 out of 12
Pollen 5.80 out of 12
Air Quality Not available.
Flu Activity Not available.
METAR KMLF 231852Z AUTO 19012G23KT 10SM CLR 36/01 A3018 RMK AO2 SLP137 T03560011

More Conditions Fewer Conditions

Pressure 29.94 in
Visibility 10.0 miles
Clouds Clear
Heat Index 93 °F
Dew Point 34 °F
Humidity 11%
Rainfall 0.00 in
Snow Depth Not available.
UV 12 out of 12
Pollen 5.80 out of 12
Air Quality Not available.
Flu Activity Not available.
METAR KMLF 231852Z AUTO 19012G23KT 10SM CLR 36/01 A3018 RMK AO2 SLP137 T03560011

More Conditions Fewer Conditions

10-Day Weather Forecast

Almanac

Astronomy

Jul. 23, 2014 Rise Set
Actual Time 6:21 AM MDT 8:48 PM MDT
Civil Twilight 5:51 AM MDT 9:19 PM MDT
Nautical Twilight 5:13 AM MDT 9:57 PM MDT
Astronomical Twilight 4:31 AM MDT 10:38 PM MDT
Moon 3:43 AM MDT 6:20 PM MDT
Length of Visible Light 15h 28m
Length of Day
14h 26m
Tomorrow will be 1m 38s shorter.
Waning Crescent, 9% of the Moon is Illuminated
Today
Waning Crescent
Jul 26
New
Aug 3
First Quarter
Aug 10
Full
Aug 17
Last Quarter

Today's Extremes

State Highs State Lows

Community

WunderPhotos

Upload Photos

1,736,734 photos uploaded!

Nearby

Snow Depth

Station Depth Elevation
Gooseberry R.S. 0 in 7920 ft
Seeley Creek 0 in 10000 ft
Merchant Valley 1 in 8750 ft
Clear Creek #2 1 in 8300 ft
Clayton Springs 0 in 10000 ft

Earthquake Activity

City Distance Mag. Time & Date
No recent earthquake activity has been reported nearby.
Minimum magnitude displayed is 2.5.

Coastal Water Temperatures

Place Temperature
No Stations Reporting

Nearby Weather Stations

Station Location Temp. Heat Index Dew Point Humidity Wind Precip. Elev Updated Type
MesoWest HOLDEN , Holden, UT 96 °F 91 °F 33 °F 11% SSW  at  5 mph 0.00 in / hr 4741 ft 12:00 PM MDT MADIS
Oak City, Oak City, UT 97.9 °F 93 °F 34 °F 11% South  at  8.0 mph 0.00 in / hr 5135 ft 1:50 PM MDT Normal
RAWS SEVIER RESERVOIR UT, Scipio, UT 97 °F 92 °F 36 °F 12% South  at  4 mph 0.00 in / hr 5369 ft 12:51 PM MDT MADIS
MesoWest VAN , Delta, UT 95 °F 91 °F - - North  at  - 0.00 in / hr 4596 ft 12:25 PM MDT MADIS
RAWS BLACK CEDAR UT, Holden, UT 90 °F 86 °F 38 °F 16% West  at  1 mph 0.00 in / hr 6493 ft 12:27 PM MDT MADIS

Show More Stations Show Fewer Stations